createdAt,value
2018-09-13T00:01:48.113Z,6.30
2018-09-13T00:04:20.135Z,6.23
2018-09-13T00:06:52.188Z,5.93
2018-09-13T00:09:24.207Z,6.20
2018-09-13T00:11:56.276Z,6.63
2018-09-13T00:14:28.292Z,6.10
2018-09-13T00:17:00.349Z,6.30
2018-09-13T00:19:32.387Z,7.33
2018-09-13T00:22:04.448Z,6.40
2018-09-13T00:24:36.467Z,6.37
2018-09-13T00:27:08.539Z,6.80
2018-09-13T00:29:40.640Z,5.90
2018-09-13T00:32:12.722Z,6.53
2018-09-13T00:34:44.787Z,7.37
2018-09-13T00:37:16.957Z,7.30
2018-09-13T00:39:49.030Z,6.30
2018-09-13T00:42:21.116Z,6.23
2018-09-13T00:44:53.183Z,6.10
2018-09-13T00:47:25.242Z,6.87
2018-09-13T00:49:57.367Z,6.80
2018-09-13T00:52:29.496Z,7.50
2018-09-13T00:55:01.529Z,6.33
2018-09-13T00:57:33.568Z,6.63
2018-09-13T01:00:06.101Z,6.33
2018-09-13T01:02:38.207Z,8.43
2018-09-13T01:05:10.276Z,7.20
2018-09-13T01:07:42.371Z,7.60
2018-09-13T01:10:14.404Z,7.10
2018-09-13T01:12:46.496Z,7.30
2018-09-13T01:15:18.561Z,6.70
2018-09-13T01:17:50.680Z,7.30
2018-09-13T01:20:22.796Z,7.30
2018-09-13T01:22:54.859Z,8.03
2018-09-13T01:25:26.911Z,11.40
2018-09-13T01:27:58.974Z,11.10
2018-09-13T01:30:31.039Z,9.20
2018-09-13T01:33:03.148Z,10.53
2018-09-13T01:35:35.206Z,11.03
2018-09-13T01:38:07.303Z,11.70
2018-09-13T01:40:39.339Z,11.13
2018-09-13T01:43:11.388Z,12.80
2018-09-13T01:45:43.528Z,12.73
2018-09-13T01:48:15.596Z,13.70
2018-09-13T01:50:47.639Z,13.33
2018-09-13T01:53:19.731Z,14.87
2018-09-13T01:55:51.784Z,13.03
2018-09-13T01:58:23.874Z,13.53
2018-09-13T02:00:56.063Z,12.53
2018-09-13T02:03:28.135Z,11.90
2018-09-13T02:06:00.176Z,10.70
2018-09-13T02:08:32.268Z,7.70
2018-09-13T02:11:04.383Z,7.10
2018-09-13T02:13:36.426Z,7.30
2018-09-13T02:16:08.507Z,6.80
2018-09-13T02:18:40.604Z,7.40
2018-09-13T02:21:12.693Z,7.10
2018-09-13T02:23:45.074Z,6.63
2018-09-13T02:26:17.178Z,7.47
2018-09-13T02:28:49.361Z,7.37
2018-09-13T02:31:21.413Z,7.30
2018-09-13T02:33:53.522Z,7.27
2018-09-13T02:36:25.571Z,7.77
2018-09-13T02:38:57.638Z,7.33
2018-09-13T02:41:29.701Z,6.97
2018-09-13T02:44:01.999Z,6.90
2018-09-13T02:46:34.154Z,8.27
2018-09-13T02:49:06.298Z,7.73
2018-09-13T02:51:38.347Z,7.17
2018-09-13T02:54:10.425Z,7.90
2018-09-13T02:56:43.093Z,7.70
2018-09-13T02:59:15.155Z,7.73
2018-09-13T03:01:47.224Z,7.93
2018-09-13T03:04:19.342Z,8.50
2018-09-13T03:06:51.586Z,6.87
2018-09-13T03:09:23.662Z,6.83
2018-09-13T03:11:55.790Z,7.53
2018-09-13T03:14:27.853Z,7.43
2018-09-13T03:16:59.949Z,7.20
2018-09-13T03:19:32.012Z,8.17
2018-09-13T03:22:04.754Z,7.33
2018-09-13T03:24:36.832Z,8.23
2018-09-13T03:27:08.895Z,7.50
2018-09-13T03:29:40.987Z,6.90
2018-09-13T03:32:13.009Z,7.70
2018-09-13T03:34:45.072Z,7.80
2018-09-13T03:37:17.200Z,7.10
2018-09-13T03:39:49.336Z,6.30
2018-09-13T03:42:21.508Z,7.37
2018-09-13T03:44:54.117Z,7.47
2018-09-13T03:47:26.497Z,8.30
2018-09-13T03:49:58.592Z,7.20
2018-09-13T03:52:30.675Z,7.60
2018-09-13T03:55:02.884Z,8.70
2018-09-13T03:57:35.009Z,7.10
2018-09-13T04:00:07.335Z,6.70
2018-09-13T04:02:39.397Z,7.80
2018-09-13T04:05:11.521Z,8.30
2018-09-13T04:07:43.587Z,7.53
2018-09-13T04:10:15.648Z,7.00
2018-09-13T04:12:48.219Z,6.80
2018-09-13T04:15:20.284Z,7.00
2018-09-13T04:17:52.399Z,7.87
2018-09-13T04:20:24.452Z,7.67
2018-09-13T04:22:56.482Z,7.67
2018-09-13T04:25:28.503Z,7.50
2018-09-13T04:28:00.589Z,7.60
2018-09-13T04:30:32.628Z,8.53
2018-09-13T04:33:04.640Z,7.53
2018-09-13T04:35:36.733Z,6.97
2018-09-13T04:38:09.417Z,7.07
2018-09-13T04:40:41.518Z,7.53
2018-09-13T04:43:13.568Z,6.47
2018-09-13T04:45:46.149Z,8.50
2018-09-13T04:48:18.202Z,7.73
2018-09-13T04:50:50.258Z,7.60
2018-09-13T04:53:22.278Z,6.83
2018-09-13T04:55:54.312Z,7.77
2018-09-13T04:58:26.583Z,7.40
2018-09-13T05:00:58.601Z,8.03
2018-09-13T05:03:30.619Z,7.07
2018-09-13T05:06:03.422Z,8.13
2018-09-13T05:08:35.426Z,7.80
2018-09-13T05:11:07.463Z,6.87
2018-09-13T05:13:39.570Z,7.93
2018-09-13T05:16:11.728Z,7.50
2018-09-13T05:18:43.731Z,7.87
2018-09-13T05:21:15.763Z,7.53
2018-09-13T05:23:47.783Z,8.17
2018-09-13T05:26:19.855Z,7.50
2018-09-13T05:28:51.974Z,8.90
2018-09-13T05:31:23.995Z,7.40
2018-09-13T05:33:56.064Z,7.50
2018-09-13T05:36:28.104Z,7.37
2018-09-13T05:39:00.277Z,9.50
2018-09-13T05:41:32.259Z,8.30
2018-09-13T05:44:04.294Z,7.30
2018-09-13T05:46:36.479Z,8.10
2018-09-13T05:49:09.103Z,7.43
2018-09-13T05:51:41.228Z,7.97
2018-09-13T05:54:13.340Z,9.03
2018-09-13T05:56:45.390Z,7.80
2018-09-13T05:59:17.522Z,6.97
2018-09-13T06:01:49.589Z,8.60
2018-09-13T06:04:21.662Z,9.60
2018-09-13T06:06:53.750Z,7.30
2018-09-13T06:09:25.839Z,8.50
2018-09-13T06:11:57.979Z,8.00
2018-09-13T06:14:30.024Z,7.73
2018-09-13T06:17:02.113Z,7.37
2018-09-13T06:19:34.142Z,8.07
2018-09-13T06:22:06.479Z,7.10
2018-09-13T06:24:38.527Z,7.83
2018-09-13T06:27:10.600Z,7.80
2018-09-13T06:29:42.678Z,8.03
2018-09-13T06:32:14.771Z,7.57
2018-09-13T06:34:46.912Z,7.70
2018-09-13T06:37:18.999Z,8.90
2018-09-13T06:39:51.039Z,8.40
2018-09-13T06:42:23.289Z,7.80
2018-09-13T06:44:55.315Z,7.57
2018-09-13T06:47:27.343Z,8.90
2018-09-13T06:49:59.481Z,7.93
2018-09-13T06:52:31.515Z,8.77
2018-09-13T06:55:03.604Z,8.10
2018-09-13T06:57:35.685Z,9.13
2018-09-13T07:00:07.760Z,7.90
2018-09-13T07:02:39.851Z,8.43
2018-09-13T07:05:11.923Z,8.87
2018-09-13T07:07:44.038Z,8.13
2018-09-13T07:10:16.120Z,8.37
2018-09-13T07:12:48.186Z,8.63
2018-09-13T07:15:20.288Z,9.33
2018-09-13T07:17:52.415Z,7.90
2018-09-13T07:20:25.480Z,7.63
2018-09-13T07:22:57.620Z,8.70
2018-09-13T07:25:29.754Z,8.70
2018-09-13T07:28:01.847Z,8.03
2018-09-13T07:30:33.911Z,8.20
2018-09-13T07:33:05.946Z,7.60
2018-09-13T07:35:37.995Z,7.60
2018-09-13T07:38:10.002Z,8.10
2018-09-13T07:40:42.047Z,8.00
2018-09-13T07:43:14.055Z,8.60
2018-09-13T07:45:46.074Z,7.90
2018-09-13T07:48:18.089Z,9.10
2018-09-13T07:50:50.155Z,8.90
2018-09-13T07:53:22.179Z,7.90
2018-09-13T07:55:54.195Z,7.80
2018-09-13T07:58:26.237Z,8.47
2018-09-13T08:00:58.260Z,7.83
2018-09-13T08:03:30.315Z,7.93
2018-09-13T08:06:02.353Z,8.60
2018-09-13T08:08:34.379Z,8.07
2018-09-13T08:11:06.511Z,7.43
2018-09-13T08:13:38.527Z,7.70
2018-09-13T08:16:10.573Z,8.20
2018-09-13T08:18:42.611Z,8.83
2018-09-13T08:21:14.825Z,8.10
2018-09-13T08:23:46.837Z,7.80
2018-09-13T08:26:18.977Z,7.50
2018-09-13T08:28:51.146Z,8.07
2018-09-13T08:31:23.245Z,8.97
2018-09-13T08:33:55.377Z,8.90
2018-09-13T08:36:27.648Z,7.50
2018-09-13T08:38:59.846Z,8.03
2018-09-13T08:41:31.967Z,9.57
2018-09-13T08:44:04.075Z,8.20
2018-09-13T08:46:36.208Z,9.17
2018-09-13T08:49:08.287Z,9.93
2018-09-13T08:51:40.356Z,9.57
2018-09-13T08:54:12.487Z,8.73
2018-09-13T08:56:44.515Z,8.37
2018-09-13T08:59:16.604Z,9.63
2018-09-13T09:01:48.683Z,8.80
2018-09-13T09:04:21.370Z,10.13
2018-09-13T09:06:53.415Z,8.80
2018-09-13T09:09:25.519Z,9.87
2018-09-13T09:11:59.891Z,9.83
2018-09-13T09:14:31.975Z,9.53
2018-09-13T09:17:04.150Z,9.67
2018-09-13T09:19:36.549Z,9.67
2018-09-13T09:22:08.692Z,11.03
2018-09-13T09:24:40.804Z,10.47
2018-09-13T09:27:12.949Z,10.70
2018-09-13T09:29:45.089Z,11.30
2018-09-13T09:32:17.187Z,11.17
2018-09-13T09:34:49.417Z,12.33
2018-09-13T09:37:21.443Z,10.47
2018-09-13T09:39:53.590Z,11.20
2018-09-13T09:42:25.764Z,10.60
2018-09-13T09:44:57.916Z,9.90
2018-09-13T09:47:30.084Z,11.47
2018-09-13T09:50:02.257Z,10.20
2018-09-13T09:52:34.434Z,10.23
2018-09-13T09:55:06.640Z,10.10
2018-09-13T09:57:39.541Z,11.43
2018-09-13T10:00:11.793Z,10.17
2018-09-13T10:02:44.030Z,10.63
2018-09-13T10:05:16.280Z,10.83
2018-09-13T10:07:48.617Z,10.40
2018-09-13T10:10:21.948Z,9.53
2018-09-13T10:12:55.195Z,9.90
2018-09-13T10:15:33.083Z,9.40
2018-09-13T10:18:10.942Z,9.20
2018-09-13T10:20:48.965Z,8.73
2018-09-13T10:23:26.975Z,8.47
2018-09-13T10:26:04.962Z,9.93
2018-09-13T10:28:43.049Z,8.90
2018-09-13T10:31:20.676Z,8.90
2018-09-13T10:33:58.634Z,8.93
2018-09-13T10:37:38.097Z,8.90
2018-09-13T10:40:15.740Z,8.10
2018-09-13T10:42:53.777Z,8.60
2018-09-13T10:45:31.793Z,8.70
2018-09-13T10:48:11.007Z,8.70
2018-09-13T10:50:47.638Z,8.90
2018-09-13T10:53:25.420Z,8.63
2018-09-13T10:55:57.614Z,7.53
2018-09-13T10:58:29.765Z,7.87
2018-09-13T11:01:03.227Z,9.03
2018-09-13T11:03:35.388Z,9.70
2018-09-13T11:06:07.493Z,9.00
2018-09-13T11:08:39.533Z,9.20
2018-09-13T11:11:12.177Z,8.50
2018-09-13T11:13:49.808Z,9.63
2018-09-13T11:16:21.901Z,9.40
2018-09-13T11:18:54.044Z,10.47
2018-09-13T11:21:26.123Z,10.07
2018-09-13T11:23:58.343Z,9.83
2018-09-13T11:26:30.443Z,10.67
2018-09-13T11:29:02.526Z,10.43
2018-09-13T11:31:34.606Z,10.77
2018-09-13T11:34:06.695Z,11.40
2018-09-13T11:36:38.805Z,11.50
2018-09-13T11:39:11.844Z,11.80
2018-09-13T11:41:44.009Z,10.43
2018-09-13T11:44:16.095Z,10.33
2018-09-13T11:46:48.271Z,10.23
2018-09-13T11:49:20.460Z,9.23
2018-09-13T11:51:52.542Z,8.70
2018-09-13T11:54:24.626Z,9.83
2018-09-13T11:56:56.786Z,8.20
2018-09-13T11:59:28.819Z,6.30
2018-09-13T12:02:01.007Z,6.70
2018-09-13T12:04:33.086Z,6.93
2018-09-13T12:07:05.253Z,6.70
2018-09-13T12:09:37.445Z,6.63
2018-09-13T12:12:09.561Z,6.47
2018-09-13T12:14:41.604Z,6.27
2018-09-13T12:17:13.666Z,5.97
2018-09-13T12:19:46.818Z,5.67
2018-09-13T12:22:18.871Z,6.00
2018-09-13T12:24:51.031Z,6.70
2018-09-13T12:27:23.270Z,5.10
2018-09-13T12:29:55.324Z,5.37
2018-09-13T12:32:27.468Z,4.67
2018-09-13T12:34:59.496Z,5.00
2018-09-13T12:37:31.632Z,4.43
2018-09-13T12:40:04.250Z,4.50
2018-09-13T12:42:36.405Z,4.93
2018-09-13T12:45:09.243Z,4.80
2018-09-13T12:47:41.461Z,5.07
2018-09-13T12:50:13.603Z,4.53
2018-09-13T12:52:45.757Z,4.47
2018-09-13T12:55:17.934Z,5.67
2018-09-13T12:57:49.964Z,4.07
2018-09-13T13:00:22.073Z,4.20
2018-09-13T13:02:54.215Z,4.80
2018-09-13T13:05:26.342Z,4.47
2018-09-13T13:07:58.509Z,4.07
2018-09-13T13:10:30.692Z,4.70
2018-09-13T13:13:02.921Z,4.57
2018-09-13T13:15:35.020Z,4.90
2018-09-13T13:18:07.128Z,4.17
2018-09-13T13:20:39.212Z,4.23
2018-09-13T13:23:11.355Z,4.23
2018-09-13T13:25:43.431Z,3.60
2018-09-13T13:28:15.638Z,4.20
2018-09-13T13:30:47.784Z,4.53
2018-09-13T13:33:19.870Z,4.63
2018-09-13T13:35:51.988Z,4.50
2018-09-13T13:38:24.068Z,4.30
2018-09-13T13:40:56.164Z,5.17
2018-09-13T13:43:28.256Z,4.10
2018-09-13T13:46:00.556Z,4.90
2018-09-13T13:48:32.669Z,4.33
2018-09-13T13:51:04.784Z,4.10
2018-09-13T13:53:36.834Z,4.13
2018-09-13T13:56:08.916Z,4.60
2018-09-13T13:58:41.009Z,4.60
2018-09-13T14:01:13.119Z,4.10
2018-09-13T14:03:45.233Z,4.60
2018-09-13T14:06:17.327Z,3.40
2018-09-13T14:08:49.392Z,4.37
2018-09-13T14:11:21.432Z,3.77
2018-09-13T14:13:53.536Z,4.20
2018-09-13T14:16:25.692Z,4.20
2018-09-13T14:18:57.757Z,8.00
2018-09-13T14:21:30.031Z,5.10
2018-09-13T14:24:02.158Z,4.40
2018-09-13T14:26:34.235Z,4.57
2018-09-13T14:29:06.379Z,4.87
2018-09-13T14:31:38.492Z,5.30
2018-09-13T14:34:10.520Z,5.50
2018-09-13T14:36:42.738Z,6.80
2018-09-13T14:39:14.821Z,7.60
2018-09-13T14:41:46.949Z,6.77
2018-09-13T14:44:19.205Z,8.20
2018-09-13T14:46:51.560Z,8.53
2018-09-13T14:49:25.788Z,8.87
2018-09-13T14:51:57.949Z,8.10
2018-09-13T14:54:30.060Z,6.60
2018-09-13T14:57:02.256Z,7.20
2018-09-13T14:59:35.323Z,5.00
2018-09-13T15:02:07.458Z,5.50
2018-09-13T15:04:39.836Z,5.33
2018-09-13T15:07:13.204Z,5.80
2018-09-13T15:09:45.329Z,5.43
2018-09-13T15:12:17.439Z,7.07
2018-09-13T15:14:49.546Z,6.50
2018-09-13T15:17:22.696Z,6.40
2018-09-13T15:19:54.830Z,6.60
2018-09-13T15:22:26.863Z,6.47
2018-09-13T15:24:58.990Z,6.43
2018-09-13T15:27:31.056Z,7.10
2018-09-13T15:30:03.232Z,8.23
2018-09-13T15:32:35.313Z,6.70
2018-09-13T15:35:07.451Z,7.57
2018-09-13T15:37:39.519Z,8.37
2018-09-13T15:40:11.724Z,6.83
2018-09-13T15:42:43.999Z,7.30
2018-09-13T15:45:16.044Z,8.07
2018-09-13T15:47:48.129Z,8.10
2018-09-13T15:50:20.447Z,7.60
2018-09-13T15:52:52.588Z,7.90
2018-09-13T15:55:24.652Z,7.73
2018-09-13T15:57:57.079Z,7.50
2018-09-13T16:00:29.347Z,7.80
2018-09-13T16:03:01.411Z,6.27
2018-09-13T16:05:33.466Z,6.53
2018-09-13T16:08:05.596Z,7.50
2018-09-13T16:10:37.700Z,7.27
2018-09-13T16:13:09.808Z,8.03
2018-09-13T16:15:41.832Z,7.20
2018-09-13T16:18:14.044Z,7.40
2018-09-13T16:20:46.129Z,7.53
2018-09-13T16:23:18.248Z,6.87
2018-09-13T16:25:50.303Z,7.43
2018-09-13T16:28:22.435Z,8.20
2018-09-13T16:30:54.531Z,7.67
2018-09-13T16:33:26.619Z,7.77
2018-09-13T16:36:00.238Z,8.83
2018-09-13T16:38:39.124Z,8.50
2018-09-13T16:41:17.027Z,8.33
2018-09-13T16:43:54.887Z,9.17
2018-09-13T16:46:32.970Z,9.07
2018-09-13T16:49:05.535Z,9.47
2018-09-13T16:51:37.616Z,10.37
2018-09-13T16:54:09.682Z,9.47
2018-09-13T16:56:41.774Z,12.10
2018-09-13T16:59:13.887Z,11.60
2018-09-13T17:01:46.021Z,10.30
2018-09-13T17:04:18.146Z,11.93
2018-09-13T17:06:50.286Z,14.37
2018-09-13T17:09:22.411Z,10.60
2018-09-13T17:11:54.781Z,9.43
2018-09-13T17:14:26.923Z,8.50
2018-09-13T17:16:59.017Z,7.33
2018-09-13T17:19:31.178Z,8.53
2018-09-13T17:22:03.325Z,7.20
2018-09-13T17:24:35.748Z,7.13
2018-09-13T17:27:07.980Z,7.57
2018-09-13T17:29:40.066Z,7.23
2018-09-13T17:32:12.197Z,7.27
2018-09-13T17:34:44.402Z,7.67
2018-09-13T17:37:16.529Z,7.33
2018-09-13T17:39:48.732Z,7.30
2018-09-13T17:42:20.847Z,7.77
2018-09-13T17:44:53.032Z,7.87
2018-09-13T17:47:25.181Z,7.47
2018-09-13T17:49:57.328Z,7.97
2018-09-13T17:52:29.448Z,8.47
2018-09-13T17:55:01.576Z,8.50
2018-09-13T17:57:34.024Z,9.00
2018-09-13T18:00:07.726Z,8.63
2018-09-13T18:02:39.928Z,8.70
2018-09-13T18:05:12.116Z,9.47
2018-09-13T18:07:44.279Z,10.37
2018-09-13T18:10:16.468Z,9.37
2018-09-13T18:12:48.626Z,8.70
2018-09-13T18:15:20.912Z,9.20
2018-09-13T18:17:52.805Z,9.40
2018-09-13T18:20:24.939Z,8.53
2018-09-13T18:22:57.182Z,9.50
2018-09-13T18:25:29.325Z,10.43
2018-09-13T18:28:01.496Z,9.40
2018-09-13T18:30:33.835Z,10.23
2018-09-13T18:33:05.961Z,10.07
2018-09-13T18:35:38.027Z,9.00
2018-09-13T18:38:10.115Z,9.40
2018-09-13T18:40:42.279Z,8.43
2018-09-13T18:43:14.406Z,9.10
2018-09-13T18:45:46.612Z,9.83
2018-09-13T18:48:18.726Z,9.17
2018-09-13T18:50:50.925Z,10.23
2018-09-13T18:53:23.055Z,10.23
2018-09-13T18:55:55.309Z,11.00
2018-09-13T18:58:27.545Z,10.90
2018-09-13T19:00:59.579Z,10.40
2018-09-13T19:03:31.728Z,9.80
2018-09-13T19:06:04.052Z,9.43
2018-09-13T19:08:36.200Z,9.90
2018-09-13T19:11:08.601Z,11.13
2018-09-13T19:13:40.730Z,10.77
2018-09-13T19:16:12.830Z,10.67
2018-09-13T19:18:44.884Z,11.03
2018-09-13T19:21:16.939Z,10.40
2018-09-13T19:23:48.976Z,10.67
2018-09-13T19:26:21.028Z,11.13
2018-09-13T19:28:53.161Z,10.23
2018-09-13T19:31:25.227Z,9.90
2018-09-13T19:33:57.353Z,11.63
2018-09-13T19:36:29.433Z,10.20
2018-09-13T19:39:01.516Z,10.63
2018-09-13T19:41:33.638Z,11.27
2018-09-13T19:44:05.771Z,12.40
2018-09-13T19:46:37.859Z,12.40
2018-09-13T19:49:09.945Z,12.07
2018-09-13T19:51:42.083Z,11.77
2018-09-13T19:54:14.183Z,12.23
2018-09-13T19:56:46.948Z,12.47
2018-09-13T19:59:19.033Z,13.43
2018-09-13T20:01:51.071Z,13.10
2018-09-13T20:04:23.164Z,14.80
2018-09-13T20:06:55.205Z,13.67
2018-09-13T20:09:27.404Z,13.37
2018-09-13T20:11:59.638Z,14.47
2018-09-13T20:14:31.730Z,13.50
2018-09-13T20:17:03.840Z,14.07
2018-09-13T20:19:35.907Z,14.60
2018-09-13T20:22:09.621Z,13.37
2018-09-13T20:24:41.742Z,14.03
2018-09-13T20:27:13.776Z,14.87
2018-09-13T20:29:45.851Z,14.20
2018-09-13T20:32:17.903Z,14.77
2018-09-13T20:34:49.975Z,14.40
2018-09-13T20:37:22.023Z,13.73
2018-09-13T20:39:54.096Z,14.10
2018-09-13T20:42:26.171Z,13.07
2018-09-13T20:44:58.250Z,13.40
2018-09-13T20:47:30.362Z,13.33
2018-09-13T20:50:02.443Z,14.03
2018-09-13T20:52:34.490Z,13.87
2018-09-13T20:55:06.548Z,13.33
2018-09-13T20:57:38.631Z,13.00
2018-09-13T21:00:15.273Z,13.73
2018-09-13T21:02:48.425Z,13.90
2018-09-13T21:05:20.475Z,13.63
2018-09-13T21:07:52.532Z,13.37
2018-09-13T21:10:24.569Z,13.97
2018-09-13T21:12:56.708Z,14.20
2018-09-13T21:15:28.755Z,14.77
2018-09-13T21:18:00.805Z,14.00
2018-09-13T21:20:32.932Z,13.80
2018-09-13T21:23:05.031Z,15.40
2018-09-13T21:25:37.174Z,13.90
2018-09-13T21:28:09.233Z,15.30
2018-09-13T21:30:41.347Z,14.30
2018-09-13T21:33:13.416Z,14.60
2018-09-13T21:35:45.486Z,13.83
2018-09-13T21:38:17.577Z,14.67
2018-09-13T21:40:49.805Z,14.40
2018-09-13T21:43:21.871Z,13.73
2018-09-13T21:45:53.908Z,14.13
2018-09-13T21:48:25.958Z,16.60
2018-09-13T21:50:58.028Z,15.37
2018-09-13T21:53:30.077Z,16.17
2018-09-13T21:56:02.138Z,14.77
2018-09-13T21:58:34.225Z,14.20
2018-09-13T22:01:06.287Z,15.10
2018-09-13T22:03:38.521Z,19.13
2018-09-13T22:06:10.581Z,17.33
2018-09-13T22:08:42.692Z,15.90
2018-09-13T22:11:14.835Z,16.40
2018-09-13T22:13:46.831Z,18.20
2018-09-13T22:16:18.892Z,16.97
2018-09-13T22:18:50.955Z,17.10
2018-09-13T22:21:23.019Z,17.63
2018-09-13T22:23:55.068Z,18.00
2018-09-13T22:26:27.108Z,16.10
2018-09-13T22:28:59.182Z,19.33
2018-09-13T22:31:31.274Z,18.43
2018-09-13T22:34:05.793Z,17.80
2018-09-13T22:36:37.847Z,18.10
2018-09-13T22:39:10.880Z,20.20
2018-09-13T22:41:42.936Z,19.80
2018-09-13T22:44:14.992Z,20.23
2018-09-13T22:46:47.032Z,19.73
2018-09-13T22:49:19.098Z,20.20
2018-09-13T22:51:51.123Z,20.73
2018-09-13T22:54:23.198Z,20.83
2018-09-13T22:56:55.235Z,21.30
2018-09-13T22:59:27.368Z,19.90
2018-09-13T23:01:59.440Z,19.73
2018-09-13T23:04:31.455Z,20.90
2018-09-13T23:07:03.504Z,19.70
2018-09-13T23:09:35.663Z,20.67
2018-09-13T23:12:07.943Z,20.67
2018-09-13T23:14:39.972Z,20.27
2018-09-13T23:17:12.035Z,21.73
2018-09-13T23:19:44.077Z,21.27
2018-09-13T23:22:16.112Z,22.33
2018-09-13T23:24:48.178Z,21.70
2018-09-13T23:27:20.192Z,21.23
2018-09-13T23:29:52.236Z,21.87
2018-09-13T23:32:24.498Z,20.93
2018-09-13T23:35:59.975Z,21.67
2018-09-13T23:38:32.036Z,20.23
2018-09-13T23:41:04.138Z,22.90
2018-09-13T23:43:36.165Z,20.63
2018-09-13T23:46:08.293Z,21.77
2018-09-13T23:48:41.124Z,22.07
2018-09-13T23:51:13.167Z,22.70
2018-09-13T23:53:45.219Z,21.00
2018-09-13T23:56:17.242Z,22.00
2018-09-13T23:58:49.310Z,23.13
